createdAt,value
2023-02-14T00:01:16.397Z,10.8625
2023-02-14T00:04:18.670Z,9.125
2023-02-14T00:07:16.842Z,9.4
2023-02-14T00:11:16.256Z,10.825
2023-02-14T00:31:16.712Z,7.6625
2023-02-14T00:34:17.504Z,8.075
2023-02-14T00:37:16.758Z,6.8625
2023-02-14T00:41:19.593Z,7.85
2023-02-14T00:44:16.464Z,9.775
2023-02-14T00:47:16.602Z,8.125
2023-02-14T00:51:17.518Z,7.475
2023-02-14T00:54:16.767Z,6.325000000000001
2023-02-14T00:57:16.653Z,8.9625
2023-02-14T01:01:17.497Z,8.1125
2023-02-14T01:04:16.815Z,6.5874999999999995
2023-02-14T01:07:16.839Z,9.525
2023-02-14T01:11:19.394Z,8.7375
2023-02-14T01:14:16.942Z,9.5375
2023-02-14T01:17:16.934Z,11.2125
2023-02-14T01:21:21.617Z,8.762500000000001
2023-02-14T01:24:16.966Z,7.8875
2023-02-14T01:27:16.999Z,5.5875
2023-02-14T01:31:19.448Z,9.8875
2023-02-14T01:34:16.158Z,6.824999999999999
2023-02-14T01:37:16.296Z,8.975
2023-02-14T01:41:16.305Z,7.15
2023-02-14T01:45:24.995Z,8.425
2023-02-14T01:47:17.045Z,5.825
2023-02-14T01:51:18.149Z,6.875
2023-02-14T01:54:18.586Z,8.075
2023-02-14T01:57:19.708Z,6.7125
2023-02-14T02:01:17.698Z,6.925
2023-02-14T02:04:21.913Z,5.7875
2023-02-14T02:07:20.899Z,6.2875
2023-02-14T02:11:15.977Z,6.9
2023-02-14T02:14:19.798Z,7.7875
2023-02-14T02:17:27.125Z,7.875
2023-02-14T02:31:37.376Z,5.550000000000001
2023-02-14T02:41:30.283Z,7.9375
2023-02-14T02:44:25.041Z,6.487500000000001
2023-02-14T02:47:24.560Z,7.925
2023-02-14T03:01:21.226Z,9.012500000000001
2023-02-14T03:05:22.821Z,10.4
2023-02-14T03:07:38.669Z,7
2023-02-14T03:11:16.829Z,5.6625000000000005
2023-02-14T03:14:23.711Z,7.700000000000001
2023-02-14T03:17:24.328Z,7.4625
2023-02-14T03:21:27.957Z,8.350000000000001
2023-02-14T03:24:25.530Z,5.7124999999999995
2023-02-14T03:27:24.887Z,7.575
2023-02-14T03:31:23.650Z,8.2875
2023-02-14T03:34:24.067Z,7.5875
2023-02-14T03:37:22.319Z,5.6375
2023-02-14T03:41:21.754Z,9.912500000000001
2023-02-14T03:44:20.315Z,8.7
2023-02-14T03:47:19.889Z,9.0375
2023-02-14T03:51:19.060Z,7.7
2023-02-14T03:54:19.730Z,7.3375
2023-02-14T03:57:23.415Z,7.6625000000000005
2023-02-14T04:01:22.124Z,6.9375
2023-02-14T04:04:20.608Z,6.300000000000001
2023-02-14T04:07:18.811Z,12.337499999999999
2023-02-14T04:11:16.327Z,10.7125
2023-02-14T04:14:17.141Z,8.575000000000001
2023-02-14T04:21:16.801Z,7.3500000000000005
2023-02-14T04:24:17.017Z,8.1125
2023-02-14T04:27:16.915Z,9.100000000000001
2023-02-14T04:31:17.976Z,9.05
2023-02-14T04:34:17.191Z,6.5625
2023-02-14T04:37:19.214Z,10.25
2023-02-14T04:41:15.998Z,5.675
2023-02-14T04:44:16.402Z,9.1625
2023-02-14T04:47:16.603Z,12.2
2023-02-14T04:51:16.267Z,7.1875
2023-02-14T04:54:16.642Z,5.9125000000000005
2023-02-14T04:57:16.551Z,6.025
2023-02-14T05:01:16.200Z,7.2125
2023-02-14T05:04:16.477Z,6.237500000000001
2023-02-14T05:07:16.816Z,12.4125
2023-02-14T05:11:17.188Z,7.824999999999999
2023-02-14T05:14:17.180Z,7.074999999999999
2023-02-14T05:17:18.728Z,7.1375
2023-02-14T05:21:17.309Z,6.275
2023-02-14T05:24:18.177Z,6.4624999999999995
2023-02-14T05:27:17.603Z,7.175000000000001
2023-02-14T05:31:18.048Z,9.9
2023-02-14T05:34:17.764Z,7.7
2023-02-14T05:37:17.468Z,10.4125
2023-02-14T05:41:16.830Z,12.3
2023-02-14T05:44:17.176Z,9.7375
2023-02-14T05:47:17.265Z,11.6875
2023-02-14T05:51:16.643Z,8.5
2023-02-14T05:54:18.614Z,4.625
2023-02-14T05:57:18.521Z,7.6
2023-02-14T06:01:17.519Z,8.299999999999999
2023-02-14T06:04:17.108Z,12.737499999999999
2023-02-14T06:07:17.449Z,7.725
2023-02-14T06:11:18.048Z,6.925000000000001
2023-02-14T06:14:16.988Z,5.3625
2023-02-14T06:17:17.079Z,6.575
2023-02-14T06:21:18.268Z,7.3999999999999995
2023-02-14T06:24:16.979Z,9.575
2023-02-14T06:27:17.049Z,7.3875
2023-02-14T06:31:16.586Z,7.7875
2023-02-14T06:34:17.003Z,6.3375
2023-02-14T06:37:16.193Z,9.2375
2023-02-14T06:41:19.342Z,7.612500000000001
2023-02-14T06:44:16.453Z,8.075
2023-02-14T06:47:18.141Z,8.0375
2023-02-14T06:51:16.447Z,8.475
2023-02-14T06:54:16.714Z,8.7625
2023-02-14T06:57:17.078Z,8.925
2023-02-14T07:01:17.220Z,6.4125
2023-02-14T07:04:18.766Z,8.0375
2023-02-14T07:07:17.524Z,7.824999999999999
2023-02-14T15:51:20.385Z,8
2023-02-14T15:54:22.104Z,7.725
2023-02-14T15:57:23.921Z,8.35
2023-02-14T16:01:20.311Z,7.4625
2023-02-14T16:04:23.209Z,8.675
2023-02-14T16:07:23.332Z,9.0875
2023-02-14T16:11:29.270Z,7.237500000000001
2023-02-14T16:14:29.013Z,8.4125
2023-02-14T16:17:31.666Z,7.425000000000001
2023-02-14T16:21:19.435Z,6.5625
2023-02-14T16:24:17.872Z,9.15
2023-02-14T16:27:17.082Z,13.587499999999999
2023-02-14T16:31:16.823Z,15.3625
2023-02-14T16:34:16.973Z,10.125
2023-02-14T16:37:21.330Z,9.9125
2023-02-14T16:41:18.678Z,8.625
2023-02-14T16:44:18.407Z,14.6625
2023-02-14T16:47:19.656Z,12.337499999999999
2023-02-14T16:51:16.678Z,13.55
2023-02-14T16:54:21.311Z,10.100000000000001
2023-02-14T16:57:19.968Z,11.287499999999998
2023-02-14T17:01:16.467Z,9.275
2023-02-14T17:04:17.212Z,9.05
2023-02-14T17:07:17.028Z,11.0625
2023-02-14T17:11:16.803Z,12.55
2023-02-14T17:14:21.232Z,10.975
2023-02-14T17:17:17.302Z,12.15
2023-02-14T17:21:22.091Z,12.3125
2023-02-14T17:24:17.006Z,18.4875
2023-02-14T17:27:17.029Z,18.8125
2023-02-14T17:31:16.936Z,18.424999999999997
2023-02-14T17:34:18.285Z,13.537499999999998
2023-02-14T17:37:19.683Z,14.649999999999999
2023-02-14T17:41:19.829Z,12.2
2023-02-14T17:44:16.668Z,11.1125
2023-02-14T17:47:18.899Z,11.799999999999999
2023-02-14T17:51:17.999Z,18.35
2023-02-14T17:54:18.394Z,27.200000000000003
2023-02-14T17:57:17.076Z,27.3125
2023-02-14T18:01:19.140Z,17.575
2023-02-14T18:04:18.581Z,20.537499999999998
2023-02-14T18:07:17.054Z,20.15
2023-02-14T18:11:19.052Z,23.75
2023-02-14T18:14:17.247Z,25.0375
2023-02-14T18:17:16.787Z,17.5375
2023-02-14T18:21:18.376Z,15.387500000000001
2023-02-14T18:24:17.174Z,13.1875
2023-02-14T18:27:16.980Z,13.3375
2023-02-14T18:31:17.405Z,14.375
2023-02-14T18:34:16.717Z,11.25
2023-02-14T18:37:17.127Z,13.8
2023-02-14T18:41:18.786Z,17.9375
2023-02-14T18:44:16.822Z,14.512500000000001
2023-02-14T18:47:16.748Z,15.024999999999999
2023-02-14T18:51:18.967Z,17.387500000000003
2023-02-14T18:54:17.318Z,13.5375
2023-02-14T18:57:17.133Z,14.287500000000001
2023-02-14T19:01:18.711Z,12.7875
2023-02-14T19:04:18.213Z,13.5
2023-02-14T19:07:17.114Z,34.925
2023-02-14T19:11:19.839Z,71.69999999999999
2023-02-14T19:14:17.939Z,61.837500000000006
2023-02-14T19:17:17.266Z,40.4
2023-02-14T19:21:18.613Z,14.399999999999999
2023-02-14T19:24:18.139Z,12.5625
2023-02-14T19:27:16.958Z,18.6625
2023-02-14T19:31:16.878Z,25.35
2023-02-14T19:34:19.523Z,33.1625
2023-02-14T19:37:17.024Z,21.4125
2023-02-14T19:41:19.103Z,19.6625
2023-02-14T19:44:18.160Z,20.9375
2023-02-14T19:47:31.018Z,14.537500000000001
2023-02-14T19:51:20.503Z,15.1875
2023-02-14T19:54:18.387Z,18.262500000000003
2023-02-14T19:57:18.380Z,14.599999999999998
2023-02-14T20:01:24.128Z,15.5
2023-02-14T20:04:19.269Z,16.3625
2023-02-14T20:07:17.869Z,16.4125
2023-02-14T20:11:30.641Z,14.075
2023-02-14T20:14:19.720Z,11.525000000000002
2023-02-14T20:17:17.854Z,15.450000000000001
2023-02-14T20:21:19.768Z,16.637500000000003
2023-02-14T20:24:20.057Z,14.95
2023-02-14T20:27:17.216Z,13.1375
2023-02-14T20:31:17.153Z,13.45
2023-02-14T20:34:18.285Z,12.15
2023-02-14T20:37:18.575Z,17.4625
2023-02-14T20:41:19.207Z,17.9375
2023-02-14T20:44:20.847Z,21.825000000000003
2023-02-14T20:47:18.561Z,23.675
2023-02-14T20:51:20.497Z,17.4
2023-02-14T20:54:20.892Z,15.8875
2023-02-14T20:57:18.461Z,16.5125
2023-02-14T21:01:18.546Z,18.275
2023-02-14T21:04:17.449Z,14.475
2023-02-14T21:07:17.072Z,14.0625
2023-02-14T21:11:19.141Z,16.150000000000002
2023-02-14T21:14:18.097Z,15.175
2023-02-14T21:17:17.897Z,27.6
2023-02-14T21:21:20.076Z,47.3625
2023-02-14T21:24:17.552Z,19.325
2023-02-14T21:27:17.453Z,13.875
2023-02-14T21:31:22.176Z,11.5625
2023-02-14T21:34:19.834Z,14.2
2023-02-14T21:37:20.141Z,10.625
2023-02-14T21:41:20.851Z,11.525
2023-02-14T21:45:55.638Z,12.35
2023-02-14T21:47:16.700Z,12.2375
2023-02-14T21:51:16.467Z,13.400000000000002
2023-02-14T21:54:16.779Z,14.1375
2023-02-14T21:57:16.647Z,15.6125
2023-02-14T22:01:18.962Z,15.2
2023-02-14T22:04:16.670Z,15.45
2023-02-14T22:07:16.666Z,14.662500000000001
2023-02-14T22:11:16.174Z,8.7125
2023-02-14T22:14:16.651Z,7.762499999999999
2023-02-14T22:17:16.437Z,8.625
2023-02-14T22:21:18.368Z,12.8
2023-02-14T22:24:16.304Z,11.412500000000001
2023-02-14T22:27:16.940Z,11.0375
2023-02-14T22:31:18.259Z,7.95
2023-02-14T22:34:18.167Z,6.6625
2023-02-14T22:37:17.090Z,11.425
2023-02-14T22:41:18.456Z,7.8625
2023-02-14T22:44:16.806Z,8.6125
2023-02-14T22:47:16.860Z,9.875
2023-02-14T22:51:20.531Z,12.9
2023-02-14T22:54:17.624Z,10.600000000000001
2023-02-14T22:57:19.542Z,8.1375
2023-02-14T23:01:18.931Z,10.7125
2023-02-14T23:04:19.398Z,9.850000000000001
2023-02-14T23:07:17.157Z,16.625
2023-02-14T23:11:19.148Z,10.3125
2023-02-14T23:22:23.431Z,15.05
2023-02-14T23:24:16.693Z,14.075
2023-02-14T23:31:18.128Z,11.600000000000001
2023-02-14T23:34:18.102Z,9.2
2023-02-14T23:37:17.790Z,19.4125
2023-02-14T23:41:49.580Z,10.2625
2023-02-14T23:44:19.831Z,12.75
2023-02-14T23:47:17.403Z,9.262500000000001
2023-02-14T23:51:16.733Z,10.325000000000001
2023-02-14T23:54:18.112Z,13.25
2023-02-14T23:57:16.842Z,12.5625
